Terminal Aerodrome Forecast
Issued by NWS

Home | Current Version | Previous Version | Text Only | Print | Product List | Glossary On
Versions: 1 2 3 4 5 6 7 8 9 10 11 12 13 14 15
000
FTUS42 TJSJ 271735
TAFISX
TAF
TISX 271735Z 2718/2818 12010KT P6SM VCSH SCT030 BKN070
     FM272330 09007KT P6SM VCSH FEW030 BKN070
     FM281300 12010KT P6SM VCSH SCT030 BKN070=

USA.gov is the U.S. government's official web portal to all federal, state and local government web resources and services.